Time;durP1;ratioP1;P1;durP2;ratioP2;P2;SDS_P1;SDS_P2;PMS_P1;PMS_P2;Temp;Humidity;BMP_temperature;BMP_pressure;BME280_temperature;BME280_humidity;BME280_pressure;Samples;Min_cycle;Max_cycle;Signal;HPM_P1;HPM_P2
2021/11/17 06:02:25;;;;;;;9.82;4.75;;;6.40;99.90;;;;;;5198021;23;20322;-79
2021/11/17 06:04:53;;;;;;;8.70;4.45;;;6.40;99.90;;;;;;4955924;29;20650;-79
2021/11/17 06:07:19;;;;;;;8.70;4.80;;;6.40;99.90;;;;;;4956136;29;20073;-77
2021/11/17 06:09:46;;;;;;;8.10;4.32;;;6.40;99.90;;;;;;4955991;29;20207;-80
2021/11/17 06:12:17;;;;;;;8.60;4.72;;;6.40;99.90;;;;;;4955767;29;20479;-79
2021/11/17 06:14:49;;;;;;;7.47;4.18;;;6.40;99.90;;;;;;4955900;29;20142;-77
2021/11/17 06:17:19;;;;;;;9.43;4.80;;;6.40;99.90;;;;;;4955605;29;20082;-79
2021/11/17 06:19:49;;;;;;;10.60;5.30;;;6.50;99.90;;;;;;4955792;29;20142;-76
2021/11/17 06:22:19;;;;;;;9.25;5.00;;;6.40;99.90;;;;;;4955676;29;20572;-78
2021/11/17 06:24:50;;;;;;;8.68;4.43;;;6.40;99.90;;;;;;4955908;29;20087;-79
2021/11/17 06:27:22;;;;;;;7.53;4.25;;;6.40;99.90;;;;;;4953498;28;20138;-77
2021/11/17 06:29:51;;;;;;;8.57;4.68;;;6.40;99.90;;;;;;4935548;29;20086;-78
2021/11/17 06:32:19;;;;;;;9.52;4.65;;;6.50;99.90;;;;;;4936154;29;20533;-79
2021/11/17 06:34:50;;;;;;;8.60;4.45;;;6.40;99.90;;;;;;4936161;29;20090;-79
2021/11/17 06:37:22;;;;;;;7.07;3.95;;;6.40;99.90;;;;;;4936341;29;20134;-78
2021/11/17 06:39:51;;;;;;;9.30;4.30;;;6.40;99.90;;;;;;4936227;29;20055;-76
2021/11/17 06:42:25;;;;;;;8.30;4.63;;;6.40;99.90;;;;;;4936132;29;20139;-77
2021/11/17 06:44:54;;;;;;;9.65;4.57;;;6.50;99.90;;;;;;4936292;29;20150;-77
2021/11/17 06:47:22;;;;;;;9.38;4.45;;;6.50;99.90;;;;;;4935937;29;20509;-79
2021/11/17 06:49:51;;;;;;;6.78;3.85;;;6.50;99.90;;;;;;4935724;29;20079;-77
2021/11/17 06:52:18;;;;;;;7.15;3.92;;;6.50;99.90;;;;;;4935527;29;20058;-78
2021/11/17 06:54:45;;;;;;;7.60;4.05;;;6.50;99.90;;;;;;4939163;29;20075;-78
2021/11/17 06:57:12;;;;;;;8.02;4.38;;;6.50;99.90;;;;;;4935741;29;20132;-79
2021/11/17 06:59:41;;;;;;;7.82;4.15;;;6.50;99.90;;;;;;4936052;29;20442;-77
2021/11/17 07:02:08;;;;;;;7.05;4.30;;;6.60;99.90;;;;;;4935526;29;20138;-78
2021/11/17 07:04:37;;;;;;;8.40;4.25;;;6.60;99.90;;;;;;4935680;29;20142;-77
2021/11/17 07:07:07;;;;;;;6.70;3.90;;;6.60;99.90;;;;;;4935784;29;20090;-79
2021/11/17 07:09:34;;;;;;;7.72;4.05;;;6.60;99.90;;;;;;4935617;29;20090;-80
2021/11/17 07:12:01;;;;;;;7.80;3.95;;;6.60;99.90;;;;;;4935508;29;20087;-77
2021/11/17 07:14:30;;;;;;;8.27;3.83;;;6.60;99.90;;;;;;4935523;29;20446;-78
2021/11/17 07:16:59;;;;;;;7.15;3.75;;;6.60;99.90;;;;;;4935545;29;20138;-77
2021/11/17 07:19:27;;;;;;;8.02;4.18;;;6.60;99.90;;;;;;4940245;29;20580;-78
2021/11/17 07:21:56;;;;;;;7.93;3.90;;;6.70;99.90;;;;;;4935437;29;20460;-79
2021/11/17 07:24:25;;;;;;;7.93;4.38;;;6.70;99.90;;;;;;4935494;29;20082;-79
2021/11/17 07:26:53;;;;;;;8.27;4.25;;;6.70;99.90;;;;;;4935393;29;20439;-79
2021/11/17 07:29:20;;;;;;;6.60;3.65;;;6.70;99.90;;;;;;4935131;29;20146;-79
2021/11/17 07:31:48;;;;;;;6.95;3.83;;;6.70;99.90;;;;;;4935069;29;20143;-80
2021/11/17 07:34:17;;;;;;;7.10;4.07;;;6.70;99.90;;;;;;4934883;29;20479;-78
2021/11/17 07:36:45;;;;;;;6.88;3.80;;;6.70;99.90;;;;;;4935000;29;20472;-78
2021/11/17 07:39:16;;;;;;;7.97;3.78;;;6.80;99.90;;;;;;4935267;29;20134;-77
2021/11/17 07:41:45;;;;;;;7.50;4.60;;;6.80;99.90;;;;;;4935067;29;20467;-80
2021/11/17 07:44:16;;;;;;;7.35;4.20;;;6.80;99.90;;;;;;4935142;29;20083;-79
2021/11/17 07:46:43;;;;;;;7.80;3.90;;;6.80;99.90;;;;;;4935086;29;20482;-79
2021/11/17 07:49:11;;;;;;;7.63;4.00;;;6.80;99.90;;;;;;4934665;29;20047;-78
2021/11/17 07:51:41;;;;;;;9.10;4.18;;;6.80;99.90;;;;;;4934956;29;20139;-78
2021/11/17 07:54:09;;;;;;;8.55;4.75;;;6.80;99.90;;;;;;4934892;29;20483;-79
2021/11/17 07:56:37;;;;;;;7.53;4.10;;;6.80;99.90;;;;;;4935144;29;20134;-76
2021/11/17 07:59:05;;;;;;;8.50;4.40;;;6.70;99.90;;;;;;4934713;29;20167;-79
2021/11/17 08:01:34;;;;;;;7.97;4.40;;;6.70;99.90;;;;;;4934588;29;20138;-78
2021/11/17 08:04:01;;;;;;;8.32;4.70;;;6.60;99.90;;;;;;4935023;29;20126;-79
2021/11/17 08:06:30;;;;;;;7.88;4.30;;;6.60;99.90;;;;;;4935109;29;20135;-77
2021/11/17 08:08:59;;;;;;;9.38;4.55;;;6.60;99.90;;;;;;4935087;29;20048;-79
2021/11/17 08:11:26;;;;;;;8.43;4.28;;;6.60;99.90;;;;;;4935131;29;20123;-77
2021/11/17 08:13:53;;;;;;;8.52;4.38;;;6.60;99.90;;;;;;4935187;29;20572;-77
2021/11/17 08:16:21;;;;;;;8.63;4.03;;;6.60;99.90;;;;;;4934612;29;20086;-77
2021/11/17 08:18:48;;;;;;;9.05;5.18;;;6.60;99.90;;;;;;4934736;29;20079;-76
2021/11/17 08:21:17;;;;;;;9.85;5.03;;;6.70;99.90;;;;;;4934797;29;20135;-76
2021/11/17 08:23:44;;;;;;;9.32;4.75;;;6.70;99.90;;;;;;4934723;29;20075;-77
2021/11/17 08:26:15;;;;;;;8.93;4.82;;;6.70;99.90;;;;;;4934567;29;20568;-76
2021/11/17 08:28:43;;;;;;;7.95;4.03;;;6.70;99.90;;;;;;4934246;29;20151;-76
2021/11/17 08:31:12;;;;;;;9.15;4.85;;;6.70;99.90;;;;;;4934575;29;20600;-78
2021/11/17 08:33:40;;;;;;;10.60;5.43;;;6.70;99.90;;;;;;4934527;29;20048;-77
2021/11/17 08:36:08;;;;;;;8.38;4.80;;;6.70;99.90;;;;;;4934532;29;20131;-77
2021/11/17 08:38:36;;;;;;;7.88;4.60;;;6.60;99.90;;;;;;4934348;29;20147;-76
2021/11/17 08:41:07;;;;;;;7.40;4.18;;;6.60;99.90;;;;;;4934364;29;20146;-77
2021/11/17 08:43:38;;;;;;;8.05;4.45;;;6.60;99.90;;;;;;4935058;29;20135;-76
2021/11/17 08:46:05;;;;;;;8.07;4.55;;;6.60;99.90;;;;;;4934497;29;20150;-79
2021/11/17 08:48:37;;;;;;;8.18;4.57;;;6.60;99.90;;;;;;4934529;29;20143;-76
2021/11/17 08:51:08;;;;;;;8.15;4.90;;;6.60;99.90;;;;;;4934368;29;20058;-80
2021/11/17 08:53:37;;;;;;;8.02;4.35;;;6.60;99.90;;;;;;4934340;29;20052;-76
2021/11/17 08:56:07;;;;;;;6.82;3.92;;;6.60;99.90;;;;;;4934755;29;20456;-76
2021/11/17 08:58:36;;;;;;;6.90;3.97;;;6.60;99.90;;;;;;4934187;29;20151;-78
2021/11/17 09:01:03;;;;;;;7.13;4.18;;;6.60;99.90;;;;;;4934249;29;20135;-76
2021/11/17 09:03:33;;;;;;;6.72;3.95;;;6.60;99.90;;;;;;4934242;29;20617;-78
2021/11/17 09:06:02;;;;;;;7.95;4.20;;;6.50;99.90;;;;;;4934219;29;20102;-77
2021/11/17 09:08:30;;;;;;;7.88;4.05;;;6.50;99.90;;;;;;4934130;29;20142;-79
2021/11/17 09:11:01;;;;;;;6.90;3.67;;;6.50;99.90;;;;;;4934053;29;20446;-77
2021/11/17 09:13:28;;;;;;;6.75;3.65;;;6.50;99.90;;;;;;4934668;29;20169;-79
2021/11/17 09:15:59;;;;;;;7.05;3.45;;;6.60;99.90;;;;;;4937745;29;20078;-78
2021/11/17 09:18:29;;;;;;;6.07;3.28;;;6.50;99.90;;;;;;4937667;29;20138;-78
2021/11/17 09:20:58;;;;;;;6.18;3.22;;;6.50;99.90;;;;;;4937585;29;20476;-78
2021/11/17 09:23:27;;;;;;;5.38;2.55;;;6.50;99.90;;;;;;4937652;29;20714;-78
2021/11/17 09:25:56;;;;;;;6.78;2.95;;;6.50;99.90;;;;;;4937532;29;20094;-76
2021/11/17 09:28:24;;;;;;;5.50;2.63;;;6.60;99.90;;;;;;4937560;29;20134;-80
2021/11/17 09:30:53;;;;;;;5.85;2.67;;;6.60;99.90;;;;;;4937411;29;20134;-75
2021/11/17 09:33:23;;;;;;;4.90;2.33;;;6.60;99.90;;;;;;4937321;29;20060;-79
2021/11/17 09:35:52;;;;;;;4.82;2.17;;;6.60;99.90;;;;;;4937519;29;20068;-78
2021/11/17 09:38:20;;;;;;;4.20;2.00;;;6.60;99.90;;;;;;4937626;29;20086;-79
2021/11/17 09:40:52;;;;;;;5.07;2.30;;;6.60;99.90;;;;;;4937152;29;20143;-79
2021/11/17 09:43:22;;;;;;;5.45;2.33;;;6.60;99.90;;;;;;4937348;29;20142;-78
2021/11/17 09:45:51;;;;;;;5.07;2.33;;;6.60;99.90;;;;;;4937180;29;20102;-79
2021/11/17 09:48:24;;;;;;;5.40;2.20;;;6.60;99.90;;;;;;4937587;29;20080;-78
2021/11/17 09:51:02;;;;;;;5.55;2.30;;;6.60;99.90;;;;;;4937498;29;20468;-77
2021/11/17 09:53:37;;;;;;;4.65;2.30;;;6.60;99.90;;;;;;4937409;29;20130;-77
2021/11/17 09:56:11;;;;;;;4.68;2.05;;;6.60;99.90;;;;;;4937298;29;20564;-76
2021/11/17 09:58:52;;;;;;;4.90;2.20;;;6.60;99.90;;;;;;4937237;29;20508;-76
2021/11/17 10:01:23;;;;;;;5.07;2.20;;;6.60;99.90;;;;;;4937091;29;20055;-79
2021/11/17 10:03:58;;;;;;;4.72;2.13;;;6.60;99.90;;;;;;4936967;29;20474;-76
2021/11/17 10:06:53;;;;;;;4.80;2.38;;;6.70;99.90;;;;;;4936863;29;20082;-77
2021/11/17 10:10:00;;;;;;;5.32;2.10;;;6.70;99.90;;;;;;4936751;29;20070;-78
2021/11/17 10:12:56;;;;;;;4.93;2.20;;;6.70;99.90;;;;;;4937029;29;20082;-77
2021/11/17 10:15:26;;;;;;;4.75;2.10;;;6.80;99.90;;;;;;4937290;29;20054;-77
2021/11/17 10:17:57;;;;;;;5.20;1.92;;;6.80;99.90;;;;;;4937264;29;20056;-78
2021/11/17 10:20:35;;;;;;;4.28;2.10;;;6.80;99.90;;;;;;4936441;29;20054;-76
2021/11/17 10:23:27;;;;;;;3.80;1.85;;;6.80;99.90;;;;;;4936530;29;20087;-77
2021/11/17 10:25:58;;;;;;;4.10;1.90;;;6.80;99.90;;;;;;4921421;29;20134;-78
2021/11/17 10:28:31;;;;;;;4.47;1.80;;;6.80;99.90;;;;;;4936430;29;20086;-77
2021/11/17 10:31:10;;;;;;;4.20;1.73;;;6.80;99.90;;;;;;4936504;29;20131;-79
2021/11/17 10:33:49;;;;;;;5.32;2.30;;;6.80;99.90;;;;;;4936422;29;20052;-77
2021/11/17 10:36:23;;;;;;;4.43;2.00;;;6.80;99.90;;;;;;4936442;29;20142;-80
2021/11/17 10:38:54;;;;;;;4.90;2.10;;;6.80;99.90;;;;;;4936242;29;20134;-78
2021/11/17 10:41:25;;;;;;;5.70;2.20;;;6.70;99.90;;;;;;4936164;29;20048;-78
2021/11/17 10:44:01;;;;;;;4.45;2.15;;;6.70;99.90;;;;;;4936333;29;20131;-78
2021/11/17 10:46:45;;;;;;;4.20;2.40;;;6.70;99.90;;;;;;4936464;29;20055;-79
2021/11/17 10:49:16;;;;;;;4.78;2.30;;;6.80;99.90;;;;;;4936229;29;20085;-78
2021/11/17 10:51:58;;;;;;;4.68;2.30;;;6.70;99.90;;;;;;4936170;29;20082;-78
2021/11/17 10:54:28;;;;;;;5.22;2.40;;;6.70;99.90;;;;;;4935883;29;20079;-78
2021/11/17 10:57:02;;;;;;;4.55;2.40;;;6.70;99.90;;;;;;4936096;29;20151;-79
2021/11/17 10:59:30;;;;;;;6.10;2.25;;;6.70;99.90;;;;;;4936003;29;20138;-79
2021/11/17 11:01:57;;;;;;;6.40;2.78;;;6.70;99.90;;;;;;4935832;29;20528;-77
2021/11/17 11:04:29;;;;;;;5.53;2.75;;;6.80;99.90;;;;;;4935739;29;20122;-79
2021/11/17 11:07:03;;;;;;;5.28;2.50;;;6.70;99.90;;;;;;4935643;29;20143;-79
2021/11/17 11:09:35;;;;;;;4.30;2.40;;;6.70;99.90;;;;;;4935820;29;20079;-78
2021/11/17 11:12:05;;;;;;;4.13;2.10;;;6.70;99.90;;;;;;4935873;29;20134;-79
2021/11/17 11:14:38;;;;;;;4.68;2.28;;;6.70;99.90;;;;;;4935580;29;20138;-80
2021/11/17 11:17:25;;;;;;;5.22;2.13;;;6.70;99.90;;;;;;4935598;29;20114;-81
2021/11/17 11:19:54;;;;;;;4.15;1.70;;;6.70;99.90;;;;;;4935368;29;20058;-78
2021/11/17 11:22:24;;;;;;;4.28;1.88;;;6.70;99.90;;;;;;4935467;29;20097;-79
2021/11/17 11:24:54;;;;;;;3.63;1.60;;;6.70;99.90;;;;;;4935326;29;20082;-80
2021/11/17 11:27:32;;;;;;;3.85;1.70;;;6.70;99.90;;;;;;4935476;29;20043;-80
2021/11/17 11:30:42;;;;;;;3.30;1.60;;;6.70;99.90;;;;;;4935171;29;20098;-79
2021/11/17 11:33:30;;;;;;;3.28;1.42;;;6.80;99.90;;;;;;4935369;29;20405;-78
2021/11/17 11:36:43;;;;;;;5.68;1.85;;;6.70;99.90;;;;;;4935122;29;20055;-81
2021/11/17 11:39:36;;;;;;;3.70;1.67;;;6.70;99.90;;;;;;4935210;29;20106;-80
2021/11/17 11:42:40;;;;;;;3.67;1.73;;;6.70;99.90;;;;;;4935196;29;20127;-79
2021/11/17 11:45:38;;;;;;;3.28;1.70;;;6.70;99.90;;;;;;4913770;29;20489;-80
2021/11/17 11:48:07;;;;;;;3.35;1.60;;;6.70;99.90;;;;;;4935217;29;20143;-78
2021/11/17 11:51:03;;;;;;;3.35;1.60;;;6.60;99.90;;;;;;4935079;29;20146;-78
2021/11/17 11:54:12;;;;;;;3.78;1.48;;;6.60;99.90;;;;;;4935078;29;20131;-79
2021/11/17 11:56:52;;;;;;;3.45;1.38;;;6.60;99.90;;;;;;4934934;29;20564;-78
2021/11/17 11:59:25;;;;;;;2.92;1.42;;;6.60;99.90;;;;;;4934399;29;20561;-77
2021/11/17 12:02:08;;;;;;;3.40;1.50;;;6.60;99.90;;;;;;4934658;29;20063;-79
2021/11/17 12:04:42;;;;;;;3.63;1.63;;;6.70;99.90;;;;;;4934819;29;20075;-79
2021/11/17 12:07:14;;;;;;;3.97;1.50;;;6.60;99.90;;;;;;4934688;29;20135;-79
2021/11/17 12:10:00;;;;;;;3.55;1.38;;;6.60;99.90;;;;;;4934687;29;20147;-78
2021/11/17 12:12:32;;;;;;;4.35;1.90;;;6.70;99.90;;;;;;4934873;29;20138;-77
2021/11/17 12:15:27;;;;;;;4.15;1.60;;;6.70;99.90;;;;;;4934908;29;20146;-79
2021/11/17 12:18:14;;;;;;;4.38;1.75;;;6.70;99.90;;;;;;4934820;29;20621;-79
2021/11/17 12:20:46;;;;;;;4.93;1.95;;;6.70;99.90;;;;;;4934959;29;20481;-79
2021/11/17 12:23:28;;;;;;;3.00;1.40;;;6.60;99.90;;;;;;4945638;29;20491;-80
2021/11/17 12:26:06;;;;;;;3.45;1.40;;;6.70;99.90;;;;;;4953633;28;20051;-79
2021/11/17 12:28:44;;;;;;;3.65;1.70;;;6.70;99.90;;;;;;4948494;28;20175;-78
2021/11/17 12:31:16;;;;;;;3.85;1.60;;;6.70;99.90;;;;;;4934759;29;20136;-79
2021/11/17 12:33:48;;;;;;;4.22;1.83;;;6.80;99.90;;;;;;4934714;29;20083;-78
2021/11/17 12:36:25;;;;;;;3.80;1.75;;;6.80;99.90;;;;;;4934617;29;20130;-78
2021/11/17 12:38:53;;;;;;;4.13;1.73;;;6.80;99.90;;;;;;4934537;29;20093;-78
2021/11/17 12:41:27;;;;;;;3.90;1.60;;;6.70;99.90;;;;;;4945646;29;20134;-76
2021/11/17 12:44:03;;;;;;;4.45;1.80;;;6.70;99.90;;;;;;4953620;29;20138;-80
2021/11/17 12:46:36;;;;;;;3.78;1.73;;;6.70;99.90;;;;;;4953644;29;20055;-80
2021/11/17 12:49:25;;;;;;;3.90;1.50;;;6.70;99.90;;;;;;4954466;28;20134;-79
2021/11/17 12:51:58;;;;;;;3.80;1.55;;;6.80;99.90;;;;;;4955699;29;20138;-79
2021/11/17 12:54:29;;;;;;;3.63;1.52;;;6.80;99.90;;;;;;4957648;29;20071;-77
2021/11/17 12:57:06;;;;;;;3.88;1.48;;;6.80;99.90;;;;;;4957004;29;20134;-80
2021/11/17 12:59:46;;;;;;;7.80;3.53;;;6.90;99.90;;;;;;4957037;29;20165;-77
2021/11/17 13:02:38;;;;;;;18.38;6.90;;;6.90;99.90;;;;;;4956991;29;20146;-77
2021/11/17 13:05:34;;;;;;;4.90;1.92;;;6.90;99.90;;;;;;4957022;29;20163;-78
2021/11/17 13:08:11;;;;;;;3.33;1.40;;;6.90;99.90;;;;;;4933916;28;20063;-77
2021/11/17 13:10:42;;;;;;;2.80;1.20;;;6.90;99.90;;;;;;4957244;29;20146;-79
2021/11/17 13:13:20;;;;;;;2.85;1.20;;;6.90;99.90;;;;;;4956998;28;20049;-79
2021/11/17 13:16:02;;;;;;;3.33;1.40;;;6.90;99.90;;;;;;4956978;29;20067;-80
2021/11/17 13:18:34;;;;;;;3.45;1.42;;;6.90;99.90;;;;;;4956822;29;20114;-79
2021/11/17 13:21:16;;;;;;;3.25;1.40;;;6.90;99.90;;;;;;4956144;29;20138;-79
2021/11/17 13:23:47;;;;;;;2.70;1.30;;;6.90;99.90;;;;;;4956508;28;20047;-78
2021/11/17 13:26:29;;;;;;;3.65;1.30;;;6.90;99.90;;;;;;4956719;29;20139;-78
2021/11/17 13:28:57;;;;;;;3.15;1.30;;;6.90;99.90;;;;;;4956711;29;20137;-77
2021/11/17 13:31:45;;;;;;;4.57;1.40;;;6.90;99.90;;;;;;4956906;29;20079;-77
2021/11/17 13:34:16;;;;;;;2.70;1.20;;;6.90;99.90;;;;;;4956387;28;20098;-78
2021/11/17 13:36:49;;;;;;;3.30;1.10;;;6.90;99.90;;;;;;4956616;29;20094;-77
2021/11/17 13:39:20;;;;;;;2.92;1.20;;;6.90;99.90;;;;;;4956525;29;20170;-79
2021/11/17 13:41:50;;;;;;;2.63;1.15;;;6.90;99.90;;;;;;4956290;29;20051;-78
2021/11/17 13:44:20;;;;;;;3.30;1.65;;;6.90;99.90;;;;;;4956510;29;20082;-80
2021/11/17 13:46:58;;;;;;;3.30;1.35;;;6.90;99.90;;;;;;4956107;28;20153;-79
2021/11/17 13:49:27;;;;;;;19.27;9.30;;;6.80;99.90;;;;;;4956192;29;20493;-80
2021/11/17 13:51:55;;;;;;;3.20;1.60;;;6.90;99.90;;;;;;4956003;29;20138;-77
2021/11/17 13:54:22;;;;;;;3.10;1.30;;;6.80;99.90;;;;;;4956216;29;20141;-78
2021/11/17 13:56:49;;;;;;;3.13;1.30;;;6.80;99.90;;;;;;4955945;29;20138;-80
2021/11/17 13:59:17;;;;;;;2.92;1.40;;;6.90;99.90;;;;;;4955748;28;20158;-79
2021/11/17 14:01:44;;;;;;;4.75;1.60;;;6.80;99.90;;;;;;4955598;29;20089;-79
2021/11/17 14:04:13;;;;;;;3.08;1.55;;;6.80;99.90;;;;;;4955921;29;20463;-78
2021/11/17 14:06:42;;;;;;;4.95;1.50;;;6.80;99.90;;;;;;4956122;29;20078;-77
2021/11/17 14:09:10;;;;;;;3.42;1.55;;;6.80;99.90;;;;;;4956265;29;20130;-78
2021/11/17 14:11:38;;;;;;;3.33;1.45;;;6.80;99.90;;;;;;4956085;28;20150;-79
2021/11/17 14:14:05;;;;;;;3.75;1.85;;;6.80;99.90;;;;;;4955433;29;20087;-78
2021/11/17 14:16:32;;;;;;;3.97;1.65;;;6.80;99.90;;;;;;4956349;29;20097;-80
2021/11/17 14:18:59;;;;;;;3.53;1.60;;;6.80;99.90;;;;;;4956024;29;20098;-78
2021/11/17 14:21:28;;;;;;;3.53;1.65;;;6.80;99.90;;;;;;4955560;28;20134;-78
2021/11/17 14:23:56;;;;;;;3.42;1.40;;;6.80;99.90;;;;;;4955726;29;20130;-77
2021/11/17 14:26:24;;;;;;;3.03;1.48;;;6.80;99.90;;;;;;4955911;29;20138;-78
2021/11/17 14:28:55;;;;;;;3.88;1.40;;;6.80;99.90;;;;;;4955394;29;20134;-79
2021/11/17 14:31:27;;;;;;;3.65;1.58;;;6.80;99.90;;;;;;4955619;29;20086;-77
2021/11/17 14:33:58;;;;;;;3.58;1.65;;;6.80;99.90;;;;;;4955340;29;20596;-79
2021/11/17 14:36:31;;;;;;;5.00;1.77;;;6.80;99.90;;;;;;4955199;29;20090;-77
2021/11/17 14:39:00;;;;;;;4.57;1.75;;;6.80;99.90;;;;;;4955518;28;20053;-80
2021/11/17 14:41:28;;;;;;;3.67;1.83;;;6.80;99.90;;;;;;4955289;29;20063;-79
2021/11/17 14:43:55;;;;;;;3.97;1.60;;;6.80;99.90;;;;;;4954919;29;20130;-80
2021/11/17 14:46:22;;;;;;;3.97;1.70;;;6.80;99.90;;;;;;4955329;29;20134;-78
2021/11/17 14:48:50;;;;;;;4.97;1.70;;;6.70;99.90;;;;;;4955441;29;20154;-79
2021/11/17 14:51:18;;;;;;;3.55;1.60;;;6.80;99.90;;;;;;4955041;29;20094;-81
2021/11/17 14:53:51;;;;;;;5.30;2.08;;;6.70;99.90;;;;;;4955094;29;20126;-79
2021/11/17 14:56:19;;;;;;;4.10;2.28;;;6.80;99.90;;;;;;4954611;29;20085;-80
2021/11/17 14:58:47;;;;;;;4.22;2.17;;;6.70;99.90;;;;;;4955233;29;20134;-78
2021/11/17 15:01:20;;;;;;;3.90;1.90;;;6.70;99.90;;;;;;4954834;29;20454;-80
2021/11/17 15:03:48;;;;;;;5.18;2.00;;;6.70;99.90;;;;;;4954936;29;20086;-81
2021/11/17 15:06:18;;;;;;;3.58;1.83;;;6.70;99.90;;;;;;4954071;29;20568;-79
2021/11/17 15:08:47;;;;;;;4.10;1.88;;;6.70;99.90;;;;;;4954837;29;20135;-78
2021/11/17 15:11:16;;;;;;;5.45;2.30;;;6.70;99.90;;;;;;4954519;28;20134;-80
2021/11/17 15:13:44;;;;;;;4.78;2.20;;;6.70;99.90;;;;;;4954824;29;20158;-78
2021/11/17 15:16:12;;;;;;;3.95;2.10;;;6.70;99.90;;;;;;4954647;29;20086;-78
2021/11/17 15:18:43;;;;;;;4.47;2.00;;;6.80;99.90;;;;;;4954701;29;20130;-80
2021/11/17 15:21:11;;;;;;;5.03;2.22;;;6.80;99.90;;;;;;4954519;29;20118;-81
2021/11/17 15:23:38;;;;;;;4.45;2.25;;;6.70;99.90;;;;;;4954475;29;20137;-77
2021/11/17 15:26:07;;;;;;;3.85;2.10;;;6.80;99.90;;;;;;4954600;29;20588;-77
2021/11/17 15:28:38;;;;;;;4.43;2.10;;;6.80;99.90;;;;;;4954597;29;20146;-79
2021/11/17 15:31:10;;;;;;;4.78;2.30;;;6.80;99.90;;;;;;4954616;28;20082;-77
2021/11/17 15:33:38;;;;;;;4.85;1.98;;;6.90;99.90;;;;;;4954611;29;20121;-79
2021/11/17 15:36:08;;;;;;;4.10;1.80;;;6.90;99.90;;;;;;4953975;29;20551;-78
2021/11/17 15:38:36;;;;;;;4.20;2.00;;;6.90;99.90;;;;;;4954819;29;20047;-78
2021/11/17 15:41:09;;;;;;;5.40;2.40;;;6.90;99.90;;;;;;4954305;29;20089;-78
2021/11/17 15:43:37;;;;;;;4.45;2.03;;;7.00;99.90;;;;;;4954304;28;20047;-79
2021/11/17 15:46:05;;;;;;;4.70;2.28;;;7.00;99.90;;;;;;4954227;28;20142;-78
2021/11/17 15:48:35;;;;;;;3.85;2.10;;;6.90;99.90;;;;;;4952184;29;20497;-76
2021/11/17 15:51:06;;;;;;;4.43;2.50;;;7.00;99.90;;;;;;4950846;28;20421;-79
2021/11/17 15:53:34;;;;;;;3.88;2.20;;;7.00;99.90;;;;;;4949036;29;20477;-78
2021/11/17 15:56:01;;;;;;;6.18;2.70;;;7.00;99.90;;;;;;4950799;29;20450;-78
2021/11/17 15:58:30;;;;;;;5.60;2.53;;;7.00;99.90;;;;;;4950967;28;20043;-78
2021/11/17 16:00:58;;;;;;;4.70;2.38;;;7.00;99.90;;;;;;4950613;28;20489;-78
2021/11/17 16:03:25;;;;;;;5.47;2.90;;;6.90;99.90;;;;;;4950389;28;20051;-78
2021/11/17 16:05:53;;;;;;;4.55;2.50;;;6.90;99.90;;;;;;4950050;29;20575;-79
2021/11/17 16:08:21;;;;;;;6.63;2.70;;;6.90;99.90;;;;;;4951528;29;20132;-79
2021/11/17 16:10:49;;;;;;;5.68;2.75;;;6.90;99.90;;;;;;4950933;29;20489;-78
2021/11/17 16:13:16;;;;;;;5.15;2.65;;;6.90;99.90;;;;;;4950624;29;20126;-79
2021/11/17 16:15:44;;;;;;;4.57;2.58;;;7.00;99.90;;;;;;4951282;29;20051;-78
2021/11/17 16:18:13;;;;;;;5.00;2.70;;;7.00;99.90;;;;;;4950499;29;20141;-79
2021/11/17 16:20:50;;;;;;;5.70;2.95;;;7.00;99.90;;;;;;4950653;29;20066;-78
2021/11/17 16:26:04;;;;;;;5.75;2.92;;;7.00;99.90;;;;;;4951128;28;20051;-80
2021/11/17 16:28:37;;;;;;;6.28;3.20;;;7.00;99.90;;;;;;4950579;28;20138;-80
2021/11/17 16:31:08;;;;;;;5.75;3.08;;;7.00;99.90;;;;;;4950894;29;20102;-79
2021/11/17 16:33:36;;;;;;;5.50;2.90;;;7.00;99.90;;;;;;4950649;29;20141;-80
2021/11/17 16:36:07;;;;;;;5.60;3.20;;;7.00;99.90;;;;;;4949721;29;20078;-78
2021/11/17 16:38:37;;;;;;;5.63;3.28;;;7.00;99.90;;;;;;4951071;28;20055;-78
2021/11/17 16:41:05;;;;;;;5.72;2.92;;;7.00;99.90;;;;;;4950187;28;20051;-77
2021/11/17 16:43:32;;;;;;;5.70;3.00;;;7.10;99.90;;;;;;4951273;29;20610;-78
2021/11/17 16:46:00;;;;;;;5.88;3.33;;;7.10;99.90;;;;;;4950053;28;20047;-77
2021/11/17 16:48:28;;;;;;;7.40;3.47;;;7.10;99.90;;;;;;4951177;29;20098;-78
2021/11/17 16:50:56;;;;;;;5.45;3.20;;;7.10;99.90;;;;;;4950569;29;20070;-79
2021/11/17 16:53:24;;;;;;;5.90;3.35;;;7.10;99.90;;;;;;4949912;29;20055;-79
2021/11/17 16:55:51;;;;;;;5.55;3.25;;;7.10;99.90;;;;;;4950259;28;20493;-78
2021/11/17 16:58:23;;;;;;;5.68;3.10;;;7.10;99.90;;;;;;4949795;29;20078;-78
2021/11/17 17:00:55;;;;;;;5.90;3.33;;;7.10;99.90;;;;;;4949822;29;20067;-80
2021/11/17 17:03:26;;;;;;;5.47;3.17;;;7.10;99.90;;;;;;4950422;28;20066;-77
2021/11/17 17:05:59;;;;;;;4.55;2.83;;;7.10;99.90;;;;;;4949469;28;20054;-77
2021/11/17 17:08:30;;;;;;;5.97;3.13;;;7.10;99.90;;;;;;4950536;29;20156;-78
2021/11/17 17:10:57;;;;;;;5.60;3.03;;;7.10;99.90;;;;;;4950541;28;20521;-79
2021/11/17 17:13:24;;;;;;;5.43;3.08;;;7.10;99.90;;;;;;4949987;29;20043;-78
2021/11/17 17:15:51;;;;;;;5.88;3.33;;;7.10;99.90;;;;;;4950334;29;20556;-80
2021/11/17 17:18:21;;;;;;;10.98;6.00;;;7.10;99.90;;;;;;4950328;29;20076;-79
2021/11/17 17:20:53;;;;;;;14.63;7.53;;;7.10;99.90;;;;;;4950227;29;20055;-79
2021/11/17 17:23:22;;;;;;;8.25;4.03;;;7.10;99.90;;;;;;4950590;29;20476;-79
2021/11/17 17:25:52;;;;;;;6.03;3.17;;;7.00;99.90;;;;;;4950266;29;20146;-79
2021/11/17 17:28:22;;;;;;;5.20;3.00;;;7.00;99.90;;;;;;4950206;28;20078;-80
2021/11/17 17:30:54;;;;;;;6.18;3.10;;;7.00;99.90;;;;;;4949458;29;20051;-81
2021/11/17 17:33:25;;;;;;;5.07;2.60;;;7.00;99.90;;;;;;4949879;29;20138;-78
2021/11/17 17:35:56;;;;;;;5.53;3.00;;;7.00;99.90;;;;;;4952647;28;20531;-79
2021/11/17 17:38:25;;;;;;;4.93;2.80;;;7.00;99.90;;;;;;4953651;28;20500;-79
2021/11/17 17:40:55;;;;;;;7.00;2.80;;;7.00;99.90;;;;;;4953263;29;20059;-78
2021/11/17 17:43:24;;;;;;;5.10;2.78;;;7.00;99.90;;;;;;4953628;29;20062;-78
2021/11/17 17:45:53;;;;;;;4.60;2.67;;;7.00;99.90;;;;;;4950757;28;20086;-78
2021/11/17 17:48:21;;;;;;;4.60;2.60;;;7.00;99.90;;;;;;4947715;29;20095;-80
2021/11/17 17:50:50;;;;;;;4.60;2.63;;;7.00;99.90;;;;;;4942335;29;20127;-80
2021/11/17 17:53:21;;;;;;;5.00;3.03;;;7.00;99.90;;;;;;4952615;28;20114;-79
2021/11/17 17:55:50;;;;;;;4.90;2.70;;;7.00;99.90;;;;;;4953144;28;20382;-76
2021/11/17 17:58:19;;;;;;;5.05;2.80;;;7.00;99.90;;;;;;4952095;28;20062;-79
2021/11/17 18:00:48;;;;;;;7.75;3.40;;;7.00;99.90;;;;;;4952915;29;20146;-78
2021/11/17 18:03:19;;;;;;;6.78;3.60;;;7.00;99.90;;;;;;4950704;29;20098;-78
2021/11/17 18:05:46;;;;;;;6.32;3.10;;;7.00;99.90;;;;;;4943492;29;20114;-78
2021/11/17 18:08:15;;;;;;;5.78;2.95;;;7.00;99.90;;;;;;4952681;29;20162;-79
2021/11/17 18:10:46;;;;;;;8.98;4.80;;;7.00;99.90;;;;;;4952622;28;20103;-80
2021/11/17 18:13:17;;;;;;;7.35;3.80;;;7.00;99.90;;;;;;4952158;28;20134;-78
2021/11/17 18:15:50;;;;;;;6.45;3.28;;;7.00;99.90;;;;;;4935844;29;20146;-80
2021/11/17 18:18:22;;;;;;;6.60;3.50;;;7.00;99.90;;;;;;4942370;28;20512;-79
2021/11/17 18:20:52;;;;;;;6.18;3.42;;;7.00;99.90;;;;;;4952171;29;20600;-79
2021/11/17 18:23:20;;;;;;;6.32;3.35;;;7.00;99.90;;;;;;4952146;28;20138;-78
2021/11/17 18:25:51;;;;;;;5.80;3.33;;;7.00;99.90;;;;;;4950679;29;20078;-78
2021/11/17 18:28:20;;;;;;;6.53;3.55;;;7.00;99.90;;;;;;4952102;28;20502;-80
2021/11/17 18:30:51;;;;;;;5.88;3.53;;;6.90;99.90;;;;;;4951870;29;20142;-76
2021/11/17 18:33:18;;;;;;;7.32;3.53;;;6.90;99.90;;;;;;4951814;29;20054;-77
2021/11/17 18:35:47;;;;;;;7.45;3.70;;;7.00;99.90;;;;;;4951370;29;20135;-77
2021/11/17 18:38:14;;;;;;;6.68;3.65;;;7.00;99.90;;;;;;4951760;29;20051;-78
2021/11/17 18:40:48;;;;;;;7.47;4.07;;;7.00;99.90;;;;;;4948858;28;20312;-78
2021/11/17 18:43:15;;;;;;;6.65;3.65;;;7.00;99.90;;;;;;4951091;29;20047;-77
2021/11/17 18:45:48;;;;;;;7.85;4.35;;;7.00;99.90;;;;;;4951505;28;20085;-78
2021/11/17 18:48:16;;;;;;;6.55;3.58;;;6.90;99.90;;;;;;4950325;28;20130;-77
2021/11/17 18:50:47;;;;;;;6.85;4.05;;;6.90;99.90;;;;;;4950876;29;20389;-77
2021/11/17 18:53:18;;;;;;;7.32;4.20;;;6.90;99.90;;;;;;4950698;29;20086;-78
2021/11/17 18:55:47;;;;;;;5.93;3.60;;;6.90;99.90;;;;;;4951365;28;20051;-79
2021/11/17 18:58:14;;;;;;;6.93;3.95;;;6.90;99.90;;;;;;4951545;29;20585;-77
2021/11/17 19:00:49;;;;;;;6.00;3.60;;;6.90;99.90;;;;;;4951336;28;20134;-78
2021/11/17 19:03:17;;;;;;;7.93;4.30;;;6.90;99.90;;;;;;4950874;28;20110;-75
2021/11/17 19:05:44;;;;;;;7.80;4.72;;;6.90;99.90;;;;;;4951134;29;20125;-76
2021/11/17 19:08:13;;;;;;;6.85;4.35;;;6.90;99.90;;;;;;4950798;29;20130;-76
2021/11/17 19:10:44;;;;;;;7.05;3.88;;;6.90;99.90;;;;;;4951022;28;20477;-77
2021/11/17 19:13:11;;;;;;;8.50;3.92;;;6.90;99.90;;;;;;4950826;29;20126;-79
2021/11/17 19:15:38;;;;;;;6.30;3.65;;;6.90;99.90;;;;;;4950875;29;20062;-78
2021/11/17 19:18:07;;;;;;;6.78;3.70;;;6.90;99.90;;;;;;4950478;28;20062;-76
2021/11/17 19:20:34;;;;;;;6.07;3.70;;;7.00;99.90;;;;;;4951040;28;20134;-77
2021/11/17 19:23:01;;;;;;;6.82;3.65;;;7.00;99.90;;;;;;4951052;29;20055;-78
2021/11/17 19:25:29;;;;;;;6.80;3.80;;;7.00;99.90;;;;;;4950856;29;20757;-76